Flight Track Log - Related Links

Times and Time Zones

All times are in EDT time to prevent confusion due to time zone crossing. See the USC105 flight status page for this flight to view local times or setup timezone preferences in your user account.

Time Position Orientation Groundspeed Altitude Reporting Facility
EDT Latitude Longitude Course Direction KTS MPH feet Rate Location/Type
Mon 10:05:29 PM 39.8217 -82.9222 40° Northeast 106 122 900  Level Indianapolis Center
Mon 10:06:11 PM 39.8397 -82.9025 40° Northeast 123 142 1,800 1,235 Climbing Indianapolis Center
Mon 10:07:11 PM 39.8672 -82.8744 38° Northeast 131 151 3,000 1,190 Climbing Indianapolis Center
Mon 10:08:12 PM 39.8819 -82.8339 65° Northeast 115 132 4,200 1,082 Climbing Indianapolis Center
Mon 10:09:13 PM 39.8994 -82.7983 57° Northeast 119 137 5,200 1,091 Climbing Indianapolis Center
Mon 10:10:13 PM 39.9183 -82.7619 56° Northeast 124 143 6,400 893 Climbing Indianapolis Center
Mon 10:11:14 PM 39.9556 -82.7361 28° Northeast 160 184 7,000 246 Climbing Indianapolis Center
Mon 10:12:15 PM 39.9994 -82.7058 28° Northeast 191 220 6,900 -49 Descending Indianapolis Center
Mon 10:13:17 PM 40.0450 -82.6747 28° Northeast 196 226 6,900  Level Indianapolis Center
Mon 10:14:16 PM 40.0975 -82.6458 23° Northeast 197 227 6,900  Level Indianapolis Center
Mon 10:15:11 PM 40.1433 -82.6181 25° Northeast 198 228 6,900  Level Indianapolis Center
Mon 10:16:11 PM 40.1933 -82.5856 26° Northeast 201 231 6,900  Level Indianapolis Center
Mon 10:17:18 PM 40.2519 -82.5536 23° Northeast 202 232 6,900  Level Indianapolis Center
Mon 10:18:19 PM 40.3006 -82.5153 31° Northeast 206 237 6,900  Level Indianapolis Center
Mon 10:19:13 PM 40.3464 -82.4847 27° Northeast 202 232 6,900  Level Indianapolis Center
Mon 10:20:24 PM 40.4053 -82.4461 27° Northeast 200 230 6,900  Level Indianapolis Center
Mon 10:21:25 PM 40.4561 -82.4089 29° Northeast 205 236 6,900  Level Indianapolis Center
Mon 10:22:26 PM 40.5069 -82.3753 27° Northeast 204 235 6,900  Level Indianapolis Center
Mon 10:23:28 PM 40.5592 -82.3417 26° Northeast 206 237 6,900  Level Indianapolis Center
Mon 10:24:29 PM 40.6114 -82.3072 27° Northeast 208 239 6,900  Level Indianapolis Center
Mon 10:25:30 PM 40.6622 -82.2714 28° Northeast 207 238 6,900 70 Level Indianapolis Center
Mon 10:25:55 PM 40.6864 -82.2589 21° North 207 238 7,000 107 Climbing Cleveland Center
Mon 10:26:26 PM 40.7139 -82.2378 30° Northeast 207 238 7,000  Level Cleveland Center
Mon 10:27:26 PM 40.7644 -82.2033 27° Northeast 208 239 7,000  Level Cleveland Center
Mon 10:28:27 PM 40.8150 -82.1717 25° Northeast 209 241 7,000  Level Cleveland Center
Mon 10:29:27 PM 40.8697 -82.1317 29° Northeast 209 241 7,000  Level Cleveland Center
Mon 10:30:28 PM 40.9200 -82.0972 27° Northeast 207 238 7,000  Level Cleveland Center
Mon 10:31:29 PM 40.9728 -82.0628 26° Northeast 207 238 7,000  Level Cleveland Center
Mon 10:32:29 PM 41.0189 -82.0306 28° Northeast 206 237 7,000 -99 Level Cleveland Center
Mon 10:33:30 PM 41.0714 -81.9961 26° Northeast 201 231 6,800 -443 Descending Cleveland Center
Mon 10:34:31 PM 41.1242 -81.9558 30° Northeast 213 245 6,100 -595 Descending Cleveland Center
Mon 10:35:31 PM 41.1808 -81.9211 25° Northeast 207 238 5,600 -545 Descending Cleveland Center
Mon 10:36:32 PM 41.2292 -81.8864 28° Northeast 203 234 5,000 -545 Descending Cleveland Center
Mon 10:37:32 PM 41.2836 -81.8569 22° Northeast 202 232 4,500 -496 Descending Cleveland Center
Mon 10:38:33 PM 41.3319 -81.8303 23° Northeast 201 231 4,000 -541 Descending Cleveland Center
Mon 10:39:34 PM 41.3822 -81.8036 22° Northeast 193 222 3,400 -595 Descending Cleveland Center
Mon 10:40:34 PM 41.4325 -81.7794 20° North 194 223 2,800 -545 Descending Cleveland Center
Mon 10:41:35 PM 41.4828 -81.7556 20° North 178 205 2,300 -893 Descending Cleveland Center
Mon 10:42:35 PM 41.5042 -81.7117 57° Northeast 127 146 1,000 -1,300 Descending Cleveland Center
Mon 10:44:00 PM 41.5175 -81.6833 27° Northeast  Level Estimated
Mon 10:51:00 PM 41.5175 -81.6833 27° Northeast  Level Estimated
Mon 10:52:00 PM 41.5175 -81.6833 27° Northeast  Level Estimated
Mon 10:53:00 PM 41.5175 -81.6833 27° Northeast  Level Estimated

Login

Don't have an account? Register now (free) for customized features, flight alerts, and more!